sensor_id;sensor_type;location;lat;lon;timestamp;temperature;humidity
5711;DHT22;61291;52.524;13.422;2022-08-26T00:00:44;21.30;99.90
5711;DHT22;61291;52.524;13.422;2022-08-26T00:03:11;21.30;99.90
5711;DHT22;61291;52.524;13.422;2022-08-26T00:05:38;21.30;99.90
5711;DHT22;61291;52.524;13.422;2022-08-26T00:08:04;21.20;99.90
5711;DHT22;61291;52.524;13.422;2022-08-26T00:10:30;21.20;99.90
5711;DHT22;61291;52.524;13.422;2022-08-26T00:12:56;21.10;99.90
5711;DHT22;61291;52.524;13.422;2022-08-26T00:15:23;21.10;99.90
5711;DHT22;61291;52.524;13.422;2022-08-26T00:17:49;21.10;99.90
5711;DHT22;61291;52.524;13.422;2022-08-26T00:20:20;21.10;99.90
5711;DHT22;61291;52.524;13.422;2022-08-26T00:22:46;21.00;99.90
5711;DHT22;61291;52.524;13.422;2022-08-26T00:25:13;21.10;99.90
5711;DHT22;61291;52.524;13.422;2022-08-26T00:27:39;21.10;99.90
5711;DHT22;61291;52.524;13.422;2022-08-26T00:30:07;21.00;99.90
5711;DHT22;61291;52.524;13.422;2022-08-26T00:32:34;21.00;99.90
5711;DHT22;61291;52.524;13.422;2022-08-26T00:35:00;21.00;99.90
5711;DHT22;61291;52.524;13.422;2022-08-26T00:37:25;20.90;99.90
5711;DHT22;61291;52.524;13.422;2022-08-26T00:39:51;20.90;99.90
5711;DHT22;61291;52.524;13.422;2022-08-26T00:42:17;20.90;99.90
5711;DHT22;61291;52.524;13.422;2022-08-26T00:44:42;20.90;99.90
5711;DHT22;61291;52.524;13.422;2022-08-26T00:47:15;20.90;99.90
5711;DHT22;61291;52.524;13.422;2022-08-26T00:49:45;20.90;99.90
5711;DHT22;61291;52.524;13.422;2022-08-26T00:52:15;20.90;99.90
5711;DHT22;61291;52.524;13.422;2022-08-26T00:54:45;20.90;99.90
5711;DHT22;61291;52.524;13.422;2022-08-26T00:57:16;20.90;99.90
5711;DHT22;61291;52.524;13.422;2022-08-26T00:59:44;20.90;99.90
5711;DHT22;61291;52.524;13.422;2022-08-26T01:02:09;20.90;99.90
5711;DHT22;61291;52.524;13.422;2022-08-26T01:04:36;20.90;99.90
5711;DHT22;61291;52.524;13.422;2022-08-26T01:07:03;20.90;99.90
5711;DHT22;61291;52.524;13.422;2022-08-26T01:09:29;20.90;99.90
5711;DHT22;61291;52.524;13.422;2022-08-26T01:11:58;20.80;99.90
5711;DHT22;61291;52.524;13.422;2022-08-26T01:14:30;20.80;99.90
5711;DHT22;61291;52.524;13.422;2022-08-26T01:16:56;20.80;99.90
5711;DHT22;61291;52.524;13.422;2022-08-26T01:19:26;20.90;99.90
5711;DHT22;61291;52.524;13.422;2022-08-26T01:21:59;20.90;99.90
5711;DHT22;61291;52.524;13.422;2022-08-26T01:24:28;21.00;99.90
5711;DHT22;61291;52.524;13.422;2022-08-26T01:27:02;21.00;99.90
5711;DHT22;61291;52.524;13.422;2022-08-26T01:29:30;21.10;99.90
5711;DHT22;61291;52.524;13.422;2022-08-26T01:31:57;21.10;99.90
5711;DHT22;61291;52.524;13.422;2022-08-26T01:34:30;21.10;99.90
5711;DHT22;61291;52.524;13.422;2022-08-26T01:37:02;21.10;99.90
5711;DHT22;61291;52.524;13.422;2022-08-26T01:39:31;21.10;99.90
5711;DHT22;61291;52.524;13.422;2022-08-26T01:41:58;21.10;99.90
5711;DHT22;61291;52.524;13.422;2022-08-26T01:44:27;21.10;99.90
5711;DHT22;61291;52.524;13.422;2022-08-26T01:46:56;21.00;99.90
5711;DHT22;61291;52.524;13.422;2022-08-26T01:49:23;21.00;99.90
5711;DHT22;61291;52.524;13.422;2022-08-26T01:51:50;20.90;99.90
5711;DHT22;61291;52.524;13.422;2022-08-26T01:54:18;20.80;99.90
5711;DHT22;61291;52.524;13.422;2022-08-26T01:56:45;20.80;99.90
5711;DHT22;61291;52.524;13.422;2022-08-26T01:59:14;20.70;99.90
5711;DHT22;61291;52.524;13.422;2022-08-26T02:01:41;20.70;99.90
5711;DHT22;61291;52.524;13.422;2022-08-26T02:04:28;20.70;99.90
5711;DHT22;61291;52.524;13.422;2022-08-26T02:06:55;20.70;99.90
5711;DHT22;61291;52.524;13.422;2022-08-26T02:09:22;20.70;99.90
5711;DHT22;61291;52.524;13.422;2022-08-26T02:11:49;20.70;99.90
5711;DHT22;61291;52.524;13.422;2022-08-26T02:14:22;20.60;99.90
5711;DHT22;61291;52.524;13.422;2022-08-26T02:16:50;20.60;99.90
5711;DHT22;61291;52.524;13.422;2022-08-26T02:19:20;20.60;99.90
5711;DHT22;61291;52.524;13.422;2022-08-26T02:21:48;20.60;99.90
5711;DHT22;61291;52.524;13.422;2022-08-26T02:24:16;20.50;99.90
5711;DHT22;61291;52.524;13.422;2022-08-26T02:26:49;20.50;99.90
5711;DHT22;61291;52.524;13.422;2022-08-26T02:31:52;20.40;99.90
5711;DHT22;61291;52.524;13.422;2022-08-26T02:34:31;20.40;99.90
5711;DHT22;61291;52.524;13.422;2022-08-26T02:36:59;20.40;99.90
5711;DHT22;61291;52.524;13.422;2022-08-26T02:39:25;20.40;99.90
5711;DHT22;61291;52.524;13.422;2022-08-26T02:41:54;20.40;99.90
5711;DHT22;61291;52.524;13.422;2022-08-26T02:44:20;20.50;99.90
5711;DHT22;61291;52.524;13.422;2022-08-26T02:46:46;20.50;99.90
5711;DHT22;61291;52.524;13.422;2022-08-26T02:49:15;20.50;99.90
5711;DHT22;61291;52.524;13.422;2022-08-26T02:51:44;20.50;99.90
5711;DHT22;61291;52.524;13.422;2022-08-26T02:54:14;20.50;99.90
5711;DHT22;61291;52.524;13.422;2022-08-26T02:56:43;20.40;99.90
5711;DHT22;61291;52.524;13.422;2022-08-26T02:59:09;20.40;99.90
5711;DHT22;61291;52.524;13.422;2022-08-26T03:01:37;20.40;99.90
5711;DHT22;61291;52.524;13.422;2022-08-26T03:04:04;20.50;99.90
5711;DHT22;61291;52.524;13.422;2022-08-26T03:06:34;20.40;99.90
5711;DHT22;61291;52.524;13.422;2022-08-26T03:08:59;20.40;99.90
5711;DHT22;61291;52.524;13.422;2022-08-26T03:11:25;20.40;99.90
5711;DHT22;61291;52.524;13.422;2022-08-26T03:13:50;20.50;99.90
5711;DHT22;61291;52.524;13.422;2022-08-26T03:16:17;20.50;99.90
5711;DHT22;61291;52.524;13.422;2022-08-26T03:18:43;20.60;99.90
5711;DHT22;61291;52.524;13.422;2022-08-26T03:21:12;20.60;99.90
5711;DHT22;61291;52.524;13.422;2022-08-26T03:23:40;20.60;99.90
5711;DHT22;61291;52.524;13.422;2022-08-26T03:26:07;20.70;99.90
5711;DHT22;61291;52.524;13.422;2022-08-26T03:28:33;20.70;99.90
5711;DHT22;61291;52.524;13.422;2022-08-26T03:30:58;20.70;99.90
5711;DHT22;61291;52.524;13.422;2022-08-26T03:33:25;20.60;99.90
5711;DHT22;61291;52.524;13.422;2022-08-26T03:35:51;20.70;99.90
5711;DHT22;61291;52.524;13.422;2022-08-26T03:38:19;20.70;99.90
5711;DHT22;61291;52.524;13.422;2022-08-26T03:40:45;20.70;99.90
5711;DHT22;61291;52.524;13.422;2022-08-26T03:43:15;20.70;99.90
5711;DHT22;61291;52.524;13.422;2022-08-26T03:45:42;20.60;99.90
5711;DHT22;61291;52.524;13.422;2022-08-26T03:48:08;20.70;99.90
5711;DHT22;61291;52.524;13.422;2022-08-26T03:50:34;20.60;99.90
5711;DHT22;61291;52.524;13.422;2022-08-26T03:53:00;20.60;99.90
5711;DHT22;61291;52.524;13.422;2022-08-26T03:55:27;20.60;99.90
5711;DHT22;61291;52.524;13.422;2022-08-26T03:57:59;20.60;99.90
5711;DHT22;61291;52.524;13.422;2022-08-26T04:00:25;20.60;99.90
5711;DHT22;61291;52.524;13.422;2022-08-26T04:02:50;20.60;99.90
5711;DHT22;61291;52.524;13.422;2022-08-26T04:05:18;20.60;99.90
5711;DHT22;61291;52.524;13.422;2022-08-26T04:07:53;20.60;99.90
5711;DHT22;61291;52.524;13.422;2022-08-26T04:10:22;20.60;99.90
5711;DHT22;61291;52.524;13.422;2022-08-26T04:12:49;20.60;99.90
5711;DHT22;61291;52.524;13.422;2022-08-26T04:15:16;20.60;99.90
5711;DHT22;61291;52.524;13.422;2022-08-26T04:17:42;20.60;99.90
5711;DHT22;61291;52.524;13.422;2022-08-26T04:20:08;20.60;99.90
5711;DHT22;61291;52.524;13.422;2022-08-26T04:22:34;20.60;99.90
5711;DHT22;61291;52.524;13.422;2022-08-26T04:24:59;20.60;99.90
5711;DHT22;61291;52.524;13.422;2022-08-26T04:27:25;20.60;99.90
5711;DHT22;61291;52.524;13.422;2022-08-26T04:29:50;20.70;99.90
5711;DHT22;61291;52.524;13.422;2022-08-26T04:32:19;20.70;99.90
5711;DHT22;61291;52.524;13.422;2022-08-26T04:34:44;20.70;99.90
5711;DHT22;61291;52.524;13.422;2022-08-26T04:37:09;20.80;99.90
5711;DHT22;61291;52.524;13.422;2022-08-26T04:39:35;20.80;99.90
5711;DHT22;61291;52.524;13.422;2022-08-26T04:42:01;20.80;99.90
5711;DHT22;61291;52.524;13.422;2022-08-26T04:44:28;20.90;99.90
5711;DHT22;61291;52.524;13.422;2022-08-26T04:46:57;20.90;99.90
5711;DHT22;61291;52.524;13.422;2022-08-26T04:49:24;20.90;99.90
5711;DHT22;61291;52.524;13.422;2022-08-26T04:51:49;20.90;99.90
5711;DHT22;61291;52.524;13.422;2022-08-26T04:54:15;20.90;99.90
5711;DHT22;61291;52.524;13.422;2022-08-26T04:56:43;21.00;99.90
5711;DHT22;61291;52.524;13.422;2022-08-26T04:59:12;21.10;99.90
5711;DHT22;61291;52.524;13.422;2022-08-26T05:01:46;21.20;99.90
5711;DHT22;61291;52.524;13.422;2022-08-26T05:04:13;21.40;99.90
5711;DHT22;61291;52.524;13.422;2022-08-26T05:06:38;21.60;99.90
5711;DHT22;61291;52.524;13.422;2022-08-26T05:09:04;21.80;99.90
5711;DHT22;61291;52.524;13.422;2022-08-26T05:11:30;21.90;99.90
5711;DHT22;61291;52.524;13.422;2022-08-26T05:13:56;22.00;99.90
5711;DHT22;61291;52.524;13.422;2022-08-26T05:16:21;22.00;99.90
5711;DHT22;61291;52.524;13.422;2022-08-26T05:18:46;22.10;99.90
5711;DHT22;61291;52.524;13.422;2022-08-26T05:21:21;22.30;99.90
5711;DHT22;61291;52.524;13.422;2022-08-26T05:23:48;22.40;99.90
5711;DHT22;61291;52.524;13.422;2022-08-26T05:26:16;22.50;99.90
5711;DHT22;61291;52.524;13.422;2022-08-26T05:28:42;22.70;99.90
5711;DHT22;61291;52.524;13.422;2022-08-26T05:31:15;22.90;99.90
5711;DHT22;61291;52.524;13.422;2022-08-26T05:33:41;23.00;99.90
5711;DHT22;61291;52.524;13.422;2022-08-26T05:36:13;23.10;99.90
5711;DHT22;61291;52.524;13.422;2022-08-26T05:38:39;23.30;99.90
5711;DHT22;61291;52.524;13.422;2022-08-26T05:41:23;23.70;99.90
5711;DHT22;61291;52.524;13.422;2022-08-26T05:43:51;23.90;99.90
5711;DHT22;61291;52.524;13.422;2022-08-26T05:46:17;24.30;99.90
5711;DHT22;61291;52.524;13.422;2022-08-26T05:48:43;24.60;99.90
5711;DHT22;61291;52.524;13.422;2022-08-26T05:51:10;24.90;99.90
5711;DHT22;61291;52.524;13.422;2022-08-26T05:53:37;25.00;99.90
5711;DHT22;61291;52.524;13.422;2022-08-26T05:56:04;25.20;99.90
5711;DHT22;61291;52.524;13.422;2022-08-26T05:58:32;25.30;99.90
5711;DHT22;61291;52.524;13.422;2022-08-26T06:01:07;25.40;99.90
5711;DHT22;61291;52.524;13.422;2022-08-26T06:03:35;25.50;99.90
5711;DHT22;61291;52.524;13.422;2022-08-26T06:06:08;25.40;99.90
5711;DHT22;61291;52.524;13.422;2022-08-26T06:08:34;25.20;99.90
5711;DHT22;61291;52.524;13.422;2022-08-26T06:11:02;25.20;99.90
5711;DHT22;61291;52.524;13.422;2022-08-26T06:13:29;25.40;99.90
5711;DHT22;61291;52.524;13.422;2022-08-26T06:15:56;25.70;99.90
5711;DHT22;61291;52.524;13.422;2022-08-26T06:18:26;26.10;99.90
5711;DHT22;61291;52.524;13.422;2022-08-26T06:20:57;26.30;99.90
5711;DHT22;61291;52.524;13.422;2022-08-26T06:23:24;26.80;99.90
5711;DHT22;61291;52.524;13.422;2022-08-26T06:26:09;27.10;99.90
5711;DHT22;61291;52.524;13.422;2022-08-26T06:28:35;27.20;99.90
5711;DHT22;61291;52.524;13.422;2022-08-26T06:31:01;27.30;99.90
5711;DHT22;61291;52.524;13.422;2022-08-26T06:33:27;27.50;99.90
5711;DHT22;61291;52.524;13.422;2022-08-26T06:35:53;27.90;99.90
5711;DHT22;61291;52.524;13.422;2022-08-26T06:38:19;28.40;99.90
5711;DHT22;61291;52.524;13.422;2022-08-26T06:40:50;28.80;99.90
5711;DHT22;61291;52.524;13.422;2022-08-26T06:43:18;29.00;99.90
5711;DHT22;61291;52.524;13.422;2022-08-26T06:45:44;29.20;99.90
5711;DHT22;61291;52.524;13.422;2022-08-26T06:48:13;29.40;99.90
5711;DHT22;61291;52.524;13.422;2022-08-26T06:50:40;29.60;99.90
5711;DHT22;61291;52.524;13.422;2022-08-26T06:53:07;29.90;99.90
5711;DHT22;61291;52.524;13.422;2022-08-26T06:55:38;30.00;99.90
5711;DHT22;61291;52.524;13.422;2022-08-26T06:58:04;30.10;99.90
5711;DHT22;61291;52.524;13.422;2022-08-26T07:00:32;30.20;99.50
5711;DHT22;61291;52.524;13.422;2022-08-26T07:02:58;30.40;98.90
5711;DHT22;61291;52.524;13.422;2022-08-26T07:05:23;30.50;98.20
5711;DHT22;61291;52.524;13.422;2022-08-26T07:07:50;30.50;97.70
5711;DHT22;61291;52.524;13.422;2022-08-26T07:10:17;30.60;97.50
5711;DHT22;61291;52.524;13.422;2022-08-26T07:12:43;30.50;97.20
5711;DHT22;61291;52.524;13.422;2022-08-26T07:15:10;30.40;97.00
5711;DHT22;61291;52.524;13.422;2022-08-26T07:17:36;30.00;97.20
5711;DHT22;61291;52.524;13.422;2022-08-26T07:20:02;30.00;97.30
5711;DHT22;61291;52.524;13.422;2022-08-26T07:22:28;30.10;97.10
5711;DHT22;61291;52.524;13.422;2022-08-26T07:24:53;30.20;96.90
5711;DHT22;61291;52.524;13.422;2022-08-26T07:27:19;30.10;96.70
5711;DHT22;61291;52.524;13.422;2022-08-26T07:29:44;30.20;96.70
5711;DHT22;61291;52.524;13.422;2022-08-26T07:32:12;30.30;96.70
5711;DHT22;61291;52.524;13.422;2022-08-26T07:34:39;30.40;95.70
5711;DHT22;61291;52.524;13.422;2022-08-26T07:37:05;30.30;96.10
5711;DHT22;61291;52.524;13.422;2022-08-26T07:39:31;30.10;96.20
5711;DHT22;61291;52.524;13.422;2022-08-26T07:41:58;30.10;96.20
5711;DHT22;61291;52.524;13.422;2022-08-26T07:44:24;30.10;96.20
5711;DHT22;61291;52.524;13.422;2022-08-26T07:46:51;30.20;95.60
5711;DHT22;61291;52.524;13.422;2022-08-26T07:49:16;30.10;95.70
5711;DHT22;61291;52.524;13.422;2022-08-26T07:51:43;29.90;95.80
5711;DHT22;61291;52.524;13.422;2022-08-26T07:54:08;29.80;96.00
5711;DHT22;61291;52.524;13.422;2022-08-26T07:56:34;29.60;96.40
5711;DHT22;61291;52.524;13.422;2022-08-26T07:59:00;29.60;96.60
5711;DHT22;61291;52.524;13.422;2022-08-26T08:01:26;29.70;96.60
5711;DHT22;61291;52.524;13.422;2022-08-26T08:03:55;29.80;96.40
5711;DHT22;61291;52.524;13.422;2022-08-26T08:06:23;29.90;96.20
5711;DHT22;61291;52.524;13.422;2022-08-26T08:08:50;29.90;96.10
5711;DHT22;61291;52.524;13.422;2022-08-26T08:11:16;30.00;96.20
5711;DHT22;61291;52.524;13.422;2022-08-26T08:13:42;30.00;96.20
5711;DHT22;61291;52.524;13.422;2022-08-26T08:16:08;29.80;96.00
5711;DHT22;61291;52.524;13.422;2022-08-26T08:18:33;29.90;95.80
5711;DHT22;61291;52.524;13.422;2022-08-26T08:20:59;29.90;95.70
5711;DHT22;61291;52.524;13.422;2022-08-26T08:23:28;30.10;95.70
5711;DHT22;61291;52.524;13.422;2022-08-26T08:26:10;30.30;95.60
5711;DHT22;61291;52.524;13.422;2022-08-26T08:28:36;30.50;95.30
5711;DHT22;61291;52.524;13.422;2022-08-26T08:31:03;30.70;95.00
5711;DHT22;61291;52.524;13.422;2022-08-26T08:33:32;30.80;94.80
5711;DHT22;61291;52.524;13.422;2022-08-26T08:35:59;30.90;94.40
5711;DHT22;61291;52.524;13.422;2022-08-26T08:38:25;30.70;94.10
5711;DHT22;61291;52.524;13.422;2022-08-26T08:40:51;30.70;93.90
5711;DHT22;61291;52.524;13.422;2022-08-26T08:43:36;30.30;94.30
5711;DHT22;61291;52.524;13.422;2022-08-26T08:46:07;30.40;93.60
5711;DHT22;61291;52.524;13.422;2022-08-26T08:48:37;30.30;93.80
5711;DHT22;61291;52.524;13.422;2022-08-26T08:51:17;30.10;93.80
5711;DHT22;61291;52.524;13.422;2022-08-26T08:53:47;29.70;94.20
5711;DHT22;61291;52.524;13.422;2022-08-26T08:56:27;29.90;94.40
5711;DHT22;61291;52.524;13.422;2022-08-26T08:59:18;29.90;94.40
5711;DHT22;61291;52.524;13.422;2022-08-26T09:07:02;30.40;94.50
5711;DHT22;61291;52.524;13.422;2022-08-26T09:09:42;30.60;94.00
5711;DHT22;61291;52.524;13.422;2022-08-26T09:12:19;30.60;93.60
5711;DHT22;61291;52.524;13.422;2022-08-26T09:14:46;30.90;93.00
5711;DHT22;61291;52.524;13.422;2022-08-26T09:17:21;31.30;92.60
5711;DHT22;61291;52.524;13.422;2022-08-26T09:19:52;31.60;92.30
5711;DHT22;61291;52.524;13.422;2022-08-26T09:22:48;31.60;91.90
5711;DHT22;61291;52.524;13.422;2022-08-26T09:25:14;31.50;91.60
5711;DHT22;61291;52.524;13.422;2022-08-26T09:27:43;31.90;91.40
5711;DHT22;61291;52.524;13.422;2022-08-26T09:30:13;32.40;90.50
5711;DHT22;61291;52.524;13.422;2022-08-26T09:32:39;32.80;90.10
5711;DHT22;61291;52.524;13.422;2022-08-26T09:35:26;33.20;88.30
5711;DHT22;61291;52.524;13.422;2022-08-26T09:37:52;33.90;87.00
5711;DHT22;61291;52.524;13.422;2022-08-26T09:40:23;34.30;86.00
5711;DHT22;61291;52.524;13.422;2022-08-26T09:43:16;34.60;84.20
5711;DHT22;61291;52.524;13.422;2022-08-26T09:45:46;34.50;79.60
5711;DHT22;61291;52.524;13.422;2022-08-26T09:48:24;34.60;80.40
5711;DHT22;61291;52.524;13.422;2022-08-26T09:51:01;34.60;79.50
5711;DHT22;61291;52.524;13.422;2022-08-26T09:53:30;34.00;78.90
5711;DHT22;61291;52.524;13.422;2022-08-26T09:58:46;33.70;79.60
5711;DHT22;61291;52.524;13.422;2022-08-26T10:01:36;33.60;79.60
5711;DHT22;61291;52.524;13.422;2022-08-26T10:04:24;33.40;80.20
5711;DHT22;61291;52.524;13.422;2022-08-26T10:07:00;32.90;80.00
5711;DHT22;61291;52.524;13.422;2022-08-26T10:09:29;33.00;79.70
5711;DHT22;61291;52.524;13.422;2022-08-26T10:12:01;33.10;80.00
5711;DHT22;61291;52.524;13.422;2022-08-26T10:14:33;32.80;80.70
5711;DHT22;61291;52.524;13.422;2022-08-26T10:17:08;32.60;81.10
5711;DHT22;61291;52.524;13.422;2022-08-26T10:19:39;32.50;81.60
5711;DHT22;61291;52.524;13.422;2022-08-26T10:22:31;32.40;82.20
5711;DHT22;61291;52.524;13.422;2022-08-26T10:25:00;32.60;81.70
5711;DHT22;61291;52.524;13.422;2022-08-26T10:27:46;32.60;81.70
5711;DHT22;61291;52.524;13.422;2022-08-26T10:30:18;32.60;80.90
5711;DHT22;61291;52.524;13.422;2022-08-26T10:35:18;32.80;80.70
5711;DHT22;61291;52.524;13.422;2022-08-26T10:37:48;32.70;80.60
5711;DHT22;61291;52.524;13.422;2022-08-26T10:40:24;32.80;80.60
5711;DHT22;61291;52.524;13.422;2022-08-26T10:43:03;32.80;80.70
5711;DHT22;61291;52.524;13.422;2022-08-26T10:45:32;33.10;80.60
5711;DHT22;61291;52.524;13.422;2022-08-26T10:48:04;33.20;80.40
5711;DHT22;61291;52.524;13.422;2022-08-26T10:50:39;33.50;79.90
5711;DHT22;61291;52.524;13.422;2022-08-26T10:53:35;33.80;77.80
5711;DHT22;61291;52.524;13.422;2022-08-26T10:56:24;33.60;77.70
5711;DHT22;61291;52.524;13.422;2022-08-26T10:59:18;33.20;78.30
5711;DHT22;61291;52.524;13.422;2022-08-26T11:02:07;33.40;78.20
5711;DHT22;61291;52.524;13.422;2022-08-26T11:04:46;33.50;78.30
5711;DHT22;61291;52.524;13.422;2022-08-26T11:07:39;33.90;77.50
5711;DHT22;61291;52.524;13.422;2022-08-26T11:15:56;33.30;78.00
5711;DHT22;61291;52.524;13.422;2022-08-26T11:18:02;33.10;78.10
5711;DHT22;61291;52.524;13.422;2022-08-26T11:20:45;32.90;78.80
5711;DHT22;61291;52.524;13.422;2022-08-26T11:28:42;32.70;79.70
5711;DHT22;61291;52.524;13.422;2022-08-26T11:34:05;32.60;80.40
5711;DHT22;61291;52.524;13.422;2022-08-26T11:38:58;32.70;80.20
5711;DHT22;61291;52.524;13.422;2022-08-26T11:41:25;32.80;79.80
5711;DHT22;61291;52.524;13.422;2022-08-26T11:43:54;32.90;79.30
5711;DHT22;61291;52.524;13.422;2022-08-26T11:46:28;32.90;79.00
5711;DHT22;61291;52.524;13.422;2022-08-26T11:49:00;33.10;78.60
5711;DHT22;61291;52.524;13.422;2022-08-26T11:51:26;33.10;78.60
5711;DHT22;61291;52.524;13.422;2022-08-26T11:54:10;33.10;78.60
5711;DHT22;61291;52.524;13.422;2022-08-26T11:56:36;33.10;78.60
5711;DHT22;61291;52.524;13.422;2022-08-26T11:59:08;32.70;79.30
5711;DHT22;61291;52.524;13.422;2022-08-26T12:01:42;32.10;80.20
5711;DHT22;61291;52.524;13.422;2022-08-26T12:04:19;31.40;78.30
5711;DHT22;61291;52.524;13.422;2022-08-26T12:06:48;30.60;77.70
5711;DHT22;61291;52.524;13.422;2022-08-26T12:09:33;29.90;79.10
5711;DHT22;61291;52.524;13.422;2022-08-26T12:12:29;28.80;82.60
5711;DHT22;61291;52.524;13.422;2022-08-26T12:15:05;27.30;90.70
5711;DHT22;61291;52.524;13.422;2022-08-26T12:17:30;26.70;93.10
5711;DHT22;61291;52.524;13.422;2022-08-26T12:19:56;26.00;94.50
5711;DHT22;61291;52.524;13.422;2022-08-26T12:22:25;25.40;95.40
5711;DHT22;61291;52.524;13.422;2022-08-26T12:25:03;24.90;97.40
5711;DHT22;61291;52.524;13.422;2022-08-26T12:27:36;24.50;98.00
5711;DHT22;61291;52.524;13.422;2022-08-26T12:32:39;23.70;99.90
5711;DHT22;61291;52.524;13.422;2022-08-26T12:35:09;23.20;99.90
5711;DHT22;61291;52.524;13.422;2022-08-26T12:37:40;22.70;99.90
5711;DHT22;61291;52.524;13.422;2022-08-26T12:42:53;22.00;99.90
5711;DHT22;61291;52.524;13.422;2022-08-26T12:45:32;21.70;99.90
5711;DHT22;61291;52.524;13.422;2022-08-26T12:48:06;21.50;99.90
5711;DHT22;61291;52.524;13.422;2022-08-26T12:50:36;21.30;99.90
5711;DHT22;61291;52.524;13.422;2022-08-26T12:53:26;21.40;99.90
5711;DHT22;61291;52.524;13.422;2022-08-26T12:55:56;21.40;99.90
5711;DHT22;61291;52.524;13.422;2022-08-26T12:58:31;21.60;99.90
5711;DHT22;61291;52.524;13.422;2022-08-26T13:08:58;21.40;99.90
5711;DHT22;61291;52.524;13.422;2022-08-26T13:11:28;21.30;99.90
5711;DHT22;61291;52.524;13.422;2022-08-26T13:14:15;21.10;99.90
5711;DHT22;61291;52.524;13.422;2022-08-26T13:16:41;21.30;99.90
5711;DHT22;61291;52.524;13.422;2022-08-26T13:19:10;21.20;99.90
5711;DHT22;61291;52.524;13.422;2022-08-26T13:21:44;21.20;99.90
5711;DHT22;61291;52.524;13.422;2022-08-26T13:24:14;20.90;99.90
5711;DHT22;61291;52.524;13.422;2022-08-26T13:26:48;20.70;99.90
5711;DHT22;61291;52.524;13.422;2022-08-26T13:29:19;20.80;99.90
5711;DHT22;61291;52.524;13.422;2022-08-26T13:31:45;20.90;99.90
5711;DHT22;61291;52.524;13.422;2022-08-26T13:34:13;20.80;99.90
5711;DHT22;61291;52.524;13.422;2022-08-26T13:36:39;20.70;99.90
5711;DHT22;61291;52.524;13.422;2022-08-26T13:39:06;20.50;99.90
5711;DHT22;61291;52.524;13.422;2022-08-26T13:41:32;20.60;99.90
5711;DHT22;61291;52.524;13.422;2022-08-26T13:43:57;20.60;99.90
5711;DHT22;61291;52.524;13.422;2022-08-26T13:46:27;20.60;99.90
5711;DHT22;61291;52.524;13.422;2022-08-26T13:48:53;20.60;99.90
5711;DHT22;61291;52.524;13.422;2022-08-26T13:51:19;20.50;99.90
5711;DHT22;61291;52.524;13.422;2022-08-26T13:53:50;20.50;99.90
5711;DHT22;61291;52.524;13.422;2022-08-26T13:56:15;20.40;99.90
5711;DHT22;61291;52.524;13.422;2022-08-26T13:58:41;20.40;99.90
5711;DHT22;61291;52.524;13.422;2022-08-26T14:01:07;20.40;99.90
5711;DHT22;61291;52.524;13.422;2022-08-26T14:03:33;20.40;99.90
5711;DHT22;61291;52.524;13.422;2022-08-26T14:05:59;20.50;99.90
5711;DHT22;61291;52.524;13.422;2022-08-26T14:08:24;20.50;99.90
5711;DHT22;61291;52.524;13.422;2022-08-26T14:10:50;20.50;99.90
5711;DHT22;61291;52.524;13.422;2022-08-26T14:13:16;20.60;99.90
5711;DHT22;61291;52.524;13.422;2022-08-26T14:15:42;20.50;99.90
5711;DHT22;61291;52.524;13.422;2022-08-26T14:18:09;20.50;99.90
5711;DHT22;61291;52.524;13.422;2022-08-26T14:20:37;20.50;99.90
5711;DHT22;61291;52.524;13.422;2022-08-26T14:23:03;20.50;99.90
5711;DHT22;61291;52.524;13.422;2022-08-26T14:25:29;20.60;99.90
5711;DHT22;61291;52.524;13.422;2022-08-26T14:27:55;20.50;99.90
5711;DHT22;61291;52.524;13.422;2022-08-26T14:30:23;20.70;99.90
5711;DHT22;61291;52.524;13.422;2022-08-26T14:32:52;20.70;99.90
5711;DHT22;61291;52.524;13.422;2022-08-26T14:35:22;20.80;99.90
5711;DHT22;61291;52.524;13.422;2022-08-26T14:37:54;20.80;99.90
5711;DHT22;61291;52.524;13.422;2022-08-26T14:40:33;20.90;99.90
5711;DHT22;61291;52.524;13.422;2022-08-26T14:43:08;20.80;99.90
5711;DHT22;61291;52.524;13.422;2022-08-26T14:45:36;20.70;99.90
5711;DHT22;61291;52.524;13.422;2022-08-26T14:48:10;20.60;99.90
5711;DHT22;61291;52.524;13.422;2022-08-26T14:51:09;20.70;99.90
5711;DHT22;61291;52.524;13.422;2022-08-26T14:53:58;20.80;99.90
5711;DHT22;61291;52.524;13.422;2022-08-26T14:56:54;20.80;99.90
5711;DHT22;61291;52.524;13.422;2022-08-26T14:59:26;20.70;99.90
5711;DHT22;61291;52.524;13.422;2022-08-26T15:01:52;20.70;99.90
5711;DHT22;61291;52.524;13.422;2022-08-26T15:04:21;20.70;99.90
5711;DHT22;61291;52.524;13.422;2022-08-26T15:06:49;20.60;99.90
5711;DHT22;61291;52.524;13.422;2022-08-26T15:09:17;20.50;99.90
5711;DHT22;61291;52.524;13.422;2022-08-26T15:11:43;20.20;99.90
5711;DHT22;61291;52.524;13.422;2022-08-26T15:14:12;20.10;99.90
5711;DHT22;61291;52.524;13.422;2022-08-26T15:16:38;19.90;99.90
5711;DHT22;61291;52.524;13.422;2022-08-26T15:19:07;19.90;99.90
5711;DHT22;61291;52.524;13.422;2022-08-26T15:21:42;19.90;99.90
5711;DHT22;61291;52.524;13.422;2022-08-26T15:24:10;20.00;99.90
5711;DHT22;61291;52.524;13.422;2022-08-26T15:26:37;19.90;99.90
5711;DHT22;61291;52.524;13.422;2022-08-26T15:29:03;19.90;99.90
5711;DHT22;61291;52.524;13.422;2022-08-26T15:31:33;19.90;99.90
5711;DHT22;61291;52.524;13.422;2022-08-26T15:34:02;19.90;99.90
5711;DHT22;61291;52.524;13.422;2022-08-26T15:36:34;19.90;99.90
5711;DHT22;61291;52.524;13.422;2022-08-26T15:39:05;19.90;99.90
5711;DHT22;61291;52.524;13.422;2022-08-26T15:41:31;19.80;99.90
5711;DHT22;61291;52.524;13.422;2022-08-26T15:44:02;20.00;99.90
5711;DHT22;61291;52.524;13.422;2022-08-26T15:46:28;20.00;99.90
5711;DHT22;61291;52.524;13.422;2022-08-26T15:48:54;20.00;99.90
5711;DHT22;61291;52.524;13.422;2022-08-26T15:51:21;20.00;99.90
5711;DHT22;61291;52.524;13.422;2022-08-26T15:53:47;20.00;99.90
5711;DHT22;61291;52.524;13.422;2022-08-26T15:56:13;20.00;99.90
5711;DHT22;61291;52.524;13.422;2022-08-26T15:58:41;20.10;99.90
5711;DHT22;61291;52.524;13.422;2022-08-26T16:01:10;20.00;99.90
5711;DHT22;61291;52.524;13.422;2022-08-26T16:03:43;20.10;99.90
5711;DHT22;61291;52.524;13.422;2022-08-26T16:06:12;20.10;99.90
5711;DHT22;61291;52.524;13.422;2022-08-26T16:08:38;20.00;99.90
5711;DHT22;61291;52.524;13.422;2022-08-26T16:11:03;20.00;99.90
5711;DHT22;61291;52.524;13.422;2022-08-26T16:13:30;20.00;99.90
5711;DHT22;61291;52.524;13.422;2022-08-26T16:15:58;20.00;99.90
5711;DHT22;61291;52.524;13.422;2022-08-26T16:18:24;20.00;99.90
5711;DHT22;61291;52.524;13.422;2022-08-26T16:20:54;19.90;99.90
5711;DHT22;61291;52.524;13.422;2022-08-26T16:23:28;19.90;99.90
5711;DHT22;61291;52.524;13.422;2022-08-26T16:26:08;19.80;99.90
5711;DHT22;61291;52.524;13.422;2022-08-26T16:28:34;19.90;99.90